Terminal Aerodrome Forecast
Issued by NWS Duluth, MN

Home | Current Version | Previous Version | Text Only | Print | Product List | Glossary On
Versions: 1 2 3 4 5 6 7 8 9 10 11 12 13 14 15 16 17 18 19 20 21 22 23 24 25 26 27
000
FTUS43 KDLH 250539
TAFINL
TAF
KINL 250539Z 2506/2606 15011G16KT P6SM VCSH OVC010 WS020/18033KT
      TEMPO 2506/2509 P6SM -SHRA BKN007
     FM250900 16009KT 4SM -SHRA BR OVC007 WS020/19041KT
      TEMPO 2509/2511 2SM -TSRA BR BKN007 OVC022CB
     FM251300 16008KT P6SM BKN007
     FM251600 19010G17KT P6SM SCT040
     FM252200 24010G19KT P6SM VCSH SCT011 BKN022
     FM260200 28012G17KT P6SM -SHRA SCT007 OVC015=

USA.gov is the U.S. government's official web portal to all federal, state and local government web resources and services.